createdAt,value
2022-10-15T00:06:08.314Z,98541.53
2022-10-15T00:16:13.225Z,98540.59
2022-10-15T00:26:37.414Z,98531.53
2022-10-15T00:36:38.813Z,98514.19
2022-10-15T00:46:46.821Z,98511.94
2022-10-15T00:56:48.785Z,98513.44
2022-10-15T01:06:52.682Z,98499.00
2022-10-15T01:17:09.804Z,98513.16
2022-10-15T01:27:34.700Z,98507.84
2022-10-15T01:37:48.251Z,98522.97
2022-10-15T01:47:51.892Z,98525.28
2022-10-15T01:57:58.045Z,98524.66
2022-10-15T02:08:18.828Z,98508.50
2022-10-15T02:18:51.828Z,98507.88
2022-10-15T02:28:56.038Z,98502.50
2022-10-15T02:38:57.553Z,98508.72
2022-10-15T02:48:59.022Z,98516.28
2022-10-15T02:59:00.519Z,98515.84
2022-10-15T03:09:01.933Z,98523.13
2022-10-15T03:19:03.322Z,98507.59
2022-10-15T03:29:04.707Z,98505.94
2022-10-15T03:39:06.263Z,98498.03
2022-10-15T03:49:07.637Z,98496.38
2022-10-15T03:59:09.078Z,98485.00
2022-10-15T04:09:10.696Z,98499.88
2022-10-15T04:19:12.080Z,98509.84
2022-10-15T04:29:13.453Z,98504.91
2022-10-15T04:39:15.268Z,98518.34
2022-10-15T04:49:16.649Z,98506.41
2022-10-15T04:59:18.068Z,98484.09
2022-10-15T05:09:19.462Z,98483.59
2022-10-15T05:19:20.895Z,98494.97
2022-10-15T05:29:22.256Z,98509.16
2022-10-15T05:39:24.226Z,98513.75
2022-10-15T05:49:25.618Z,98518.63
2022-10-15T05:59:26.996Z,98523.84
2022-10-15T06:09:28.374Z,98523.19
2022-10-15T06:19:29.743Z,98518.06
2022-10-15T06:29:31.103Z,98533.56
2022-10-15T06:39:32.516Z,98534.69
2022-10-15T06:49:33.909Z,98538.69
2022-10-15T06:59:38.571Z,98539.09
2022-10-15T07:09:42.653Z,98549.19
2022-10-15T07:19:44.065Z,98558.22
2022-10-15T07:29:45.435Z,98553.44
2022-10-15T07:39:46.849Z,98552.00
2022-10-15T07:49:48.268Z,98553.53
2022-10-15T07:59:49.905Z,98550.81
2022-10-15T08:09:51.647Z,98537.59
2022-10-15T08:19:53.043Z,98529.66
2022-10-15T08:29:58.896Z,98519.88
2022-10-15T08:40:00.278Z,98520.47
2022-10-15T08:50:18.123Z,98517.53
2022-10-15T09:00:24.128Z,98529.13
2022-10-15T09:10:51.320Z,98526.56
2022-10-15T09:20:52.826Z,98518.31
2022-10-15T09:30:55.728Z,98514.72
2022-10-15T09:41:34.696Z,98509.41
2022-10-15T09:51:45.645Z,98502.81
2022-10-15T10:01:59.884Z,98503.09
2022-10-15T10:12:03.379Z,98502.16
2022-10-15T10:22:19.983Z,98492.88
2022-10-15T10:32:23.954Z,98484.34
2022-10-15T10:42:26.525Z,98491.66
2022-10-15T10:52:36.210Z,98479.41
2022-10-15T11:02:41.335Z,98468.53
2022-10-15T11:12:54.792Z,98462.59
2022-10-15T11:23:12.799Z,98456.38
2022-10-15T11:33:35.878Z,98454.72
2022-10-15T11:43:49.907Z,98442.78
2022-10-15T11:54:13.262Z,98441.94
2022-10-15T12:04:18.339Z,98433.50
2022-10-15T12:14:37.238Z,98422.78
2022-10-15T12:24:39.371Z,98409.56
2022-10-15T12:34:41.002Z,98407.69
2022-10-15T12:44:42.646Z,98396.47
2022-10-15T12:54:47.170Z,98387.94
2022-10-15T13:04:48.578Z,98392.09
2022-10-15T13:14:52.836Z,98395.13
2022-10-15T13:24:55.623Z,98386.84
2022-10-15T13:34:57.486Z,98391.78
2022-10-15T13:45:01.246Z,98378.03
2022-10-15T13:55:02.642Z,98388.97
2022-10-15T14:05:16.748Z,98401.13
2022-10-15T14:15:47.274Z,98392.47
2022-10-15T14:25:53.411Z,98382.78
2022-10-15T14:36:22.215Z,98388.34
2022-10-15T14:46:23.680Z,98398.41
2022-10-15T14:56:29.688Z,98400.53
2022-10-15T15:06:32.542Z,98409.75
2022-10-15T15:16:33.923Z,98410.75
2022-10-15T15:26:35.443Z,98410.63
2022-10-15T15:36:36.818Z,98428.19
2022-10-15T15:46:38.195Z,98473.03
2022-10-15T15:56:40.954Z,98489.31
2022-10-15T16:06:42.428Z,98485.38
2022-10-15T16:16:44.024Z,98515.72
2022-10-15T16:26:45.486Z,98505.94
2022-10-15T16:36:46.917Z,98529.41
2022-10-15T16:46:48.321Z,98550.22
2022-10-15T16:56:52.760Z,98562.09
2022-10-15T17:06:54.363Z,98579.38
2022-10-15T17:16:55.818Z,98624.59
2022-10-15T17:26:57.946Z,98638.81
2022-10-15T17:36:59.408Z,98667.63
2022-10-15T17:47:00.795Z,98690.44
2022-10-15T17:57:02.375Z,98702.88
2022-10-15T18:07:03.874Z,98705.56
2022-10-15T18:17:05.307Z,98721.41
2022-10-15T18:27:06.696Z,98715.28
2022-10-15T18:37:08.257Z,98724.91
2022-10-15T18:47:10.545Z,98735.13
2022-10-15T18:57:12.072Z,98733.56
2022-10-15T19:07:13.497Z,98732.16
2022-10-15T19:17:14.963Z,98743.22
2022-10-15T19:27:16.359Z,98757.66
2022-10-15T19:37:17.804Z,98766.06
2022-10-15T19:47:20.911Z,98760.84
2022-10-15T19:57:23.158Z,98766.69
2022-10-15T20:07:24.809Z,98771.00
2022-10-15T20:17:26.842Z,98772.56
2022-10-15T20:27:28.666Z,98786.72
2022-10-15T20:37:30.102Z,98809.13
2022-10-15T20:47:32.411Z,98817.16
2022-10-15T20:57:33.801Z,98847.44
2022-10-15T21:07:35.307Z,98858.28
2022-10-15T21:17:36.687Z,98877.91
2022-10-15T21:27:38.377Z,98881.03
2022-10-15T21:37:39.755Z,98872.50
2022-10-15T21:47:41.156Z,98876.69
2022-10-15T21:57:42.543Z,98859.06
2022-10-15T22:07:43.919Z,98892.28
2022-10-15T22:17:45.293Z,98890.41
2022-10-15T22:27:46.662Z,98881.72
2022-10-15T22:37:48.063Z,98879.25
2022-10-15T22:47:49.460Z,98868.53
2022-10-15T22:57:52.192Z,98887.69
2022-10-15T23:07:53.661Z,98899.78
2022-10-15T23:17:56.827Z,98895.00
2022-10-15T23:27:58.297Z,98903.75
2022-10-15T23:37:59.698Z,98899.13
2022-10-15T23:48:01.076Z,98889.41
2022-10-15T23:58:04.721Z,98893.63
